Aleppo, Pennsylvania
Current Conditions -  °F | °C
As of 6:15 PM on Wednesday 26 Nov 2014 (Local Time) from KAFJ Reporting Station
Overcast Overcast  
Wind Chill: 32°   Ceiling: 400
Heat Index: 32°   Visibility: 3mi
Dew Point: 28°   Wind: 3mph
Humidity: 87%   Direction: 310°NW
Pressure: 30.01"   Gusts: NA
Location:  39.82°N, 80.45°W
Report Text: KAFJ 262315Z 31003KT 3SM OVC004 00/M02 A3001 RMK AO1
Loading
Personal Weather Stations






























Interactive Weather Map New forecast layout! Learn more

10-Day Weather Forecast

Advertisements
Track Severe Weather on mobile